Time;durP1;ratioP1;P1;durP2;ratioP2;P2;SDS_P1;SDS_P2;PMS_P1;PMS_P2;Temp;Humidity;BMP_temperature;BMP_pressure;BME280_temperature;BME280_humidity;BME280_pressure;Samples;Min_cycle;Max_cycle;Signal;HPM_P1;HPM_P2
2022/11/29 00:01:38;;;;;;;21.08;11.77;;;7.90;60.30;;;6.52;64.43;101330.88;12151020;19;20272;-86
2022/11/29 00:05:40;;;;;;;22.95;13.65;;;7.80;60.30;;;6.41;64.45;101315.63;12145804;19;20343;-86
2022/11/29 00:09:42;;;;;;;21.17;13.80;;;7.80;60.20;;;6.34;64.43;101300.25;12148566;19;20256;-86
2022/11/29 00:13:44;;;;;;;23.85;12.68;;;7.80;60.20;;;6.41;64.53;101320.81;12163826;19;20018;-86
2022/11/29 00:17:45;;;;;;;19.67;11.65;;;7.80;60.40;;;6.36;64.43;101308.84;12124105;19;20508;-86
2022/11/29 00:21:47;;;;;;;21.70;12.82;;;7.70;60.70;;;6.35;64.42;101309.78;12105040;19;20382;-86
2022/11/29 00:25:49;;;;;;;21.40;12.00;;;7.70;60.50;;;6.33;64.45;101316.72;12108866;19;20010;-86
2022/11/29 00:29:51;;;;;;;22.52;13.07;;;7.80;60.60;;;6.35;64.49;101317.53;12105703;19;20431;-85
2022/11/29 00:33:53;;;;;;;21.33;13.15;;;7.70;60.40;;;6.40;64.36;101313.94;12109185;19;20034;-86
2022/11/29 00:37:55;;;;;;;24.65;12.95;;;7.90;60.60;;;6.40;64.53;101313.94;12105983;19;20398;-86
2022/11/29 00:41:57;;;;;;;21.85;12.85;;;7.70;60.50;;;6.36;64.63;101301.91;12098920;19;20018;-86
2022/11/29 00:45:59;;;;;;;20.00;12.82;;;7.70;60.70;;;6.38;64.50;101317.47;12121190;19;20410;-86
2022/11/29 00:50:00;;;;;;;22.92;13.57;;;7.70;60.60;;;6.04;64.46;101258.75;12128606;19;20015;-86
2022/11/29 00:54:02;;;;;;;25.48;13.45;;;7.70;60.70;;;6.27;64.49;101288.38;12127601;19;20037;-86
2022/11/29 00:58:05;;;;;;;22.98;12.82;;;7.70;60.70;;;6.00;64.49;101249.38;12131162;19;20530;-86
2022/11/29 01:02:06;;;;;;;21.65;12.80;;;7.70;60.70;;;6.24;64.48;101291.91;12119511;19;20038;-86
2022/11/29 01:06:12;;;;;;;20.85;11.82;;;7.80;60.80;;;6.33;64.52;101301.16;12118263;19;20011;-86
2022/11/29 01:10:14;;;;;;;;;;;7.70;60.60;;;6.18;64.33;101287.75;12115520;19;20403;-86
2022/11/29 01:14:16;;;;;;;20.17;11.88;;;7.70;60.80;;;6.27;64.62;101306.53;12123838;19;19922;-86
2022/11/29 01:18:18;;;;;;;19.13;11.57;;;7.70;60.50;;;6.20;64.52;101295.47;12112635;19;20118;-86
2022/11/29 01:22:20;;;;;;;17.50;10.60;;;7.70;60.60;;;6.32;64.64;101315.00;12110153;19;20333;-86
2022/11/29 01:26:26;;;;;;;20.95;12.30;;;7.70;60.60;;;6.25;64.48;101310.91;12111472;19;20026;-86
2022/11/29 01:30:28;;;;;;;19.88;12.13;;;7.70;60.60;;;6.12;64.67;101284.47;12106250;19;20840;-86
2022/11/29 01:34:29;;;;;;;19.25;12.05;;;7.70;60.70;;;6.20;64.30;101298.91;12109803;19;20486;-86
2022/11/29 01:38:31;;;;;;;21.48;12.50;;;7.70;60.70;;;6.15;64.65;101285.22;12104445;19;20471;-86
2022/11/29 01:42:33;;;;;;;18.85;11.88;;;7.70;60.60;;;6.22;64.66;101298.03;12108190;19;20367;-86
2022/11/29 01:46:42;;;;;;;23.90;12.93;;;7.70;60.60;;;6.28;64.68;101311.66;12108990;19;20884;-86
2022/11/29 01:50:44;;;;;;;18.88;12.27;;;7.70;60.60;;;6.19;64.58;101294.63;12104874;19;20886;-87
2022/11/29 01:54:51;;;;;;;19.63;12.25;;;8.00;60.90;;;6.31;64.50;101316.75;12107980;19;20018;-86
2022/11/29 01:58:53;;;;;;;24.23;13.45;;;7.70;60.70;;;6.27;64.59;101311.72;12104249;19;21047;-86
2022/11/29 02:03:04;;;;;;;20.52;12.40;;;7.70;60.60;;;6.24;64.50;101297.09;12100486;19;20378;-86
2022/11/29 02:07:06;;;;;;;19.50;12.15;;;7.70;60.60;;;6.26;64.59;101307.41;12102442;19;20368;-86
2022/11/29 02:11:14;;;;;;;19.13;12.32;;;7.60;60.60;;;6.33;64.62;101325.34;12105837;19;20026;-86
2022/11/29 02:15:52;;;;;;;21.52;13.50;;;7.70;60.70;;;6.26;64.36;101310.84;12104188;19;20857;-86
2022/11/29 02:21:02;;;;;;;21.50;12.20;;;7.70;60.50;;;6.27;64.63;101312.56;12104847;19;20331;-86
2022/11/29 02:25:38;;;;;;;21.35;11.63;;;7.60;60.60;;;6.27;64.47;101322.09;12121638;19;20015;-86
2022/11/29 02:30:28;;;;;;;19.58;12.73;;;7.60;60.60;;;6.26;64.51;101326.41;12116525;19;20377;-86
2022/11/29 02:34:52;;;;;;;24.05;13.23;;;7.60;60.70;;;6.26;64.65;101326.41;12113891;19;20034;-86
2022/11/29 02:39:33;;;;;;;26.42;13.10;;;7.60;60.60;;;6.22;64.44;101322.22;12107727;19;20824;-86
2022/11/29 02:43:53;;;;;;;24.40;12.27;;;7.60;60.70;;;6.24;64.65;101328.22;12108876;19;20025;-87
2022/11/29 02:48:32;;;;;;;24.30;13.07;;;7.60;60.80;;;6.24;64.40;101332.53;12117732;19;20470;-86
2022/11/29 02:52:51;;;;;;;19.17;11.90;;;7.60;60.90;;;6.25;64.49;101335.09;12111379;19;20410;-86
2022/11/29 02:57:04;;;;;;;25.60;12.73;;;7.60;60.90;;;6.27;64.58;101337.66;12123849;19;20018;-87
2022/11/29 03:01:18;;;;;;;23.85;13.25;;;7.60;60.90;;;6.27;64.69;101335.91;12110691;19;20396;-87
2022/11/29 03:05:44;;;;;;;21.88;13.32;;;7.60;60.90;;;6.28;64.41;101342.78;12115937;19;20041;-86
2022/11/29 03:10:16;;;;;;;20.73;12.85;;;7.60;60.80;;;6.25;64.61;101339.44;12116100;19;20137;-86
2022/11/29 03:14:28;;;;;;;22.02;13.43;;;7.60;60.80;;;6.25;64.50;101347.22;12121204;19;20401;-87
2022/11/29 03:18:32;;;;;;;21.88;11.70;;;7.60;60.90;;;6.26;64.72;101351.50;12166285;19;20374;-86
2022/11/29 03:23:23;;;;;;;21.08;11.98;;;7.60;60.80;;;6.07;64.53;101327.81;12166782;19;20441;-86
2022/11/29 03:27:46;;;;;;;24.75;12.85;;;7.60;60.80;;;6.15;64.42;101344.84;12172026;19;20046;-87
2022/11/29 03:32:21;;;;;;;23.65;13.35;;;7.60;60.80;;;6.16;64.71;101356.94;12168469;19;20563;-87
2022/11/29 03:37:01;;;;;;;24.35;13.43;;;7.60;60.90;;;6.17;64.69;101361.22;12172145;19;20019;-86
2022/11/29 03:41:31;;;;;;;26.55;13.73;;;7.50;60.80;;;6.22;64.69;101365.47;12165327;19;20394;-87
2022/11/29 03:45:56;;;;;;;22.65;13.35;;;7.60;60.90;;;6.15;64.65;101350.03;12166945;19;20549;-86
2022/11/29 03:50:15;;;;;;;23.25;12.82;;;7.60;60.90;;;6.16;64.71;101350.91;12117730;19;20024;-86
2022/11/29 03:54:55;;;;;;;22.55;12.50;;;7.60;61.00;;;6.23;64.70;101368.00;12121546;19;20048;-86
2022/11/29 03:59:41;;;;;;;23.88;13.20;;;7.60;60.90;;;6.20;64.50;101363.75;12112362;19;20485;-87
2022/11/29 04:03:49;;;;;;;20.90;11.50;;;7.60;60.80;;;6.24;64.68;101369.72;12149975;19;20558;-86
2022/11/29 04:08:24;;;;;;;20.50;11.95;;;7.60;60.90;;;6.22;64.52;101368.91;12169715;19;20406;-86
2022/11/29 04:12:50;;;;;;;20.98;12.73;;;7.60;60.90;;;6.27;64.65;101371.38;12163436;19;20172;-86
2022/11/29 04:17:29;;;;;;;24.13;12.10;;;7.60;60.90;;;6.27;64.79;101367.03;12167338;19;20032;-86
2022/11/29 04:21:46;;;;;;;19.15;11.38;;;7.60;60.90;;;6.29;64.83;101373.03;12162141;19;20042;-86
2022/11/29 04:26:24;;;;;;;22.33;13.80;;;7.60;60.90;;;6.28;64.66;101373.06;12157224;19;20014;-86
2022/11/29 04:30:35;;;;;;;20.60;12.13;;;7.60;60.80;;;6.12;64.62;101344.09;12153771;19;21082;-86
2022/11/29 04:35:19;;;;;;;21.98;12.70;;;7.60;60.80;;;6.28;64.54;101378.25;12155461;19;20041;-86
2022/11/29 04:40:07;;;;;;;17.30;11.27;;;7.70;60.90;;;6.28;64.80;101371.31;12151770;19;20022;-86
2022/11/29 04:44:21;;;;;;;20.63;10.95;;;7.70;61.10;;;6.29;64.53;101380.81;12152182;19;20129;-86
2022/11/29 04:49:00;;;;;;;20.30;11.57;;;7.60;60.80;;;6.29;64.55;101380.81;12157567;19;20019;-86
2022/11/29 04:53:29;;;;;;;24.13;12.50;;;7.60;60.80;;;6.20;64.47;101366.31;12153725;19;20074;-86
2022/11/29 04:58:05;;;;;;;24.75;11.82;;;7.60;60.80;;;6.31;64.71;101380.75;12151905;19;20430;-86
2022/11/29 05:02:35;;;;;;;20.65;11.82;;;7.60;60.80;;;6.30;64.49;101384.25;12152008;19;20300;-86
2022/11/29 05:07:09;;;;;;;21.98;11.70;;;7.60;60.70;;;6.27;64.67;101384.34;12153721;19;20039;-86
2022/11/29 05:11:50;;;;;;;18.02;11.77;;;7.70;60.80;;;6.28;64.73;101386.88;12149953;19;20015;-86
2022/11/29 05:15:52;;;;;;;21.23;12.80;;;7.70;60.80;;;6.30;64.83;101384.25;12153083;19;20461;-86
2022/11/29 05:20:33;;;;;;;22.98;12.35;;;7.60;60.60;;;6.27;64.55;101395.56;12150881;19;20390;-86
2022/11/29 05:25:05;;;;;;;16.48;10.02;;;7.70;60.70;;;6.24;64.58;101397.38;12145800;19;20026;-86
2022/11/29 05:29:45;;;;;;;20.17;11.93;;;7.60;60.70;;;6.19;64.71;101390.56;12150599;19;20022;-86
2022/11/29 05:34:55;;;;;;;18.90;11.73;;;7.60;60.70;;;6.27;64.57;101407.69;12144162;19;20102;-86
2022/11/29 05:39:35;;;;;;;19.98;11.63;;;7.60;60.70;;;6.28;64.68;101419.75;12139792;19;21034;-86
2022/11/29 05:43:40;;;;;;;20.20;11.75;;;7.60;60.60;;;6.30;64.54;101420.56;12144418;19;20044;-86
2022/11/29 05:48:03;;;;;;;21.50;11.38;;;7.60;60.70;;;6.23;64.55;101409.50;12136813;19;20634;-86
2022/11/29 05:52:30;;;;;;;17.75;10.40;;;7.60;60.70;;;6.25;64.70;101420.69;12144529;19;20042;-86
2022/11/29 05:57:30;;;;;;;17.70;11.88;;;7.60;60.60;;;6.19;64.58;101421.69;12147922;19;20812;-86
2022/11/29 06:01:58;;;;;;;21.30;12.40;;;7.60;60.60;;;6.24;64.44;101428.47;12140221;19;20015;-86
2022/11/29 06:06:25;;;;;;;22.83;13.35;;;7.60;60.40;;;6.24;64.53;101436.25;12146460;19;20296;-86
2022/11/29 06:10:38;;;;;;;22.90;13.05;;;7.60;60.40;;;6.19;64.69;101447.63;12142653;19;20954;-86
2022/11/29 06:14:59;;;;;;;22.50;13.25;;;7.70;60.60;;;6.22;64.72;101453.63;12141415;19;20022;-86
2022/11/29 06:19:27;;;;;;;27.05;15.55;;;7.60;60.50;;;6.16;64.48;101450.28;12139860;19;20014;-86
2022/11/29 06:23:40;;;;;;;24.70;13.43;;;7.50;60.50;;;6.17;64.70;101456.31;12148364;19;20034;-86
2022/11/29 06:28:13;;;;;;;21.55;12.57;;;7.50;60.60;;;6.05;64.55;101452.31;12149849;19;20015;-86
2022/11/29 06:33:15;;;;;;;23.35;13.15;;;7.50;60.60;;;5.84;64.50;101432.06;12144263;19;20018;-86
2022/11/29 06:37:41;;;;;;;18.73;11.88;;;7.50;60.60;;;6.04;64.50;101460.13;12139487;19;20018;-86
2022/11/29 06:41:43;;;;;;;19.70;12.45;;;7.50;60.60;;;5.97;64.65;101446.47;12137314;19;20299;-86
2022/11/29 06:45:56;;;;;;;21.85;12.40;;;7.40;60.60;;;6.06;64.53;101474.75;12139549;19;20309;-86
2022/11/29 06:50:52;;;;;;;18.52;12.00;;;7.50;60.60;;;6.06;64.49;101473.91;12139250;19;20336;-87
2022/11/29 06:55:21;;;;;;;19.73;10.65;;;7.50;60.70;;;6.04;64.64;101483.44;12144598;19;20010;-87
2022/11/29 06:59:32;;;;;;;19.70;11.60;;;7.40;60.60;;;6.07;64.73;101488.56;12140669;19;20482;-86
2022/11/29 07:03:52;;;;;;;20.83;11.18;;;7.40;60.70;;;6.07;64.53;101485.97;12141767;19;20049;-85
2022/11/29 07:08:14;;;;;;;20.52;11.38;;;7.40;60.60;;;6.03;64.68;101480.00;12147046;19;20086;-85
2022/11/29 07:12:17;;;;;;;17.08;10.43;;;7.40;60.60;;;6.08;64.75;101495.47;12140175;19;20303;-88
2022/11/29 07:16:38;;;;;;;18.50;10.98;;;7.40;60.60;;;6.05;64.52;101488.59;12146554;19;20022;-86
2022/11/29 07:21:05;;;;;;;16.20;10.05;;;7.50;60.70;;;6.09;64.49;101504.94;12141363;19;20534;-86
2022/11/29 07:25:35;;;;;;;17.27;10.88;;;7.40;60.70;;;6.09;64.71;101508.38;12148950;19;20015;-85
2022/11/29 07:30:00;;;;;;;17.90;11.05;;;7.40;60.80;;;6.10;64.51;101512.69;12145150;19;20259;-85
2022/11/29 07:34:11;;;;;;;16.88;10.88;;;7.50;61.00;;;6.11;64.70;101508.34;12141269;19;20335;-85
2022/11/29 07:38:55;;;;;;;19.60;11.93;;;7.40;61.00;;;6.10;64.74;101512.69;12144622;19;20418;-86
2022/11/29 07:43:29;;;;;;;19.60;11.68;;;7.50;61.10;;;6.12;64.60;101528.19;12141019;19;20018;-85
2022/11/29 07:47:30;;;;;;;21.92;12.07;;;7.50;61.20;;;6.08;64.79;101511.88;12137888;19;20884;-86
2022/11/29 07:51:32;;;;;;;20.13;12.85;;;7.50;61.20;;;6.14;64.71;101519.50;12144084;19;20279;-86
2022/11/29 07:55:34;;;;;;;22.60;13.40;;;7.50;61.30;;;6.14;64.93;101529.88;12145903;19;20031;-86
2022/11/29 07:59:36;;;;;;;23.15;13.60;;;7.60;61.40;;;6.09;64.70;101510.97;12145615;19;20027;-86
2022/11/29 08:03:40;;;;;;;24.23;14.02;;;7.60;61.50;;;6.12;64.68;101513.47;12158020;19;20382;-86
2022/11/29 08:07:42;;;;;;;20.70;13.10;;;7.60;61.50;;;6.26;64.95;101533.88;12160693;19;20018;-87
2022/11/29 08:11:44;;;;;;;20.30;12.50;;;7.80;61.70;;;6.26;64.80;101527.84;12152446;19;20473;-87
2022/11/29 08:15:47;;;;;;;20.17;11.82;;;7.60;61.40;;;6.20;64.73;101515.91;12163277;19;20014;-86
2022/11/29 08:19:49;;;;;;;21.55;13.13;;;7.70;61.50;;;6.31;64.93;101531.19;12145816;19;20123;-86
2022/11/29 08:23:51;;;;;;;21.63;13.07;;;7.80;61.50;;;6.37;64.77;101536.22;12160275;19;20010;-86
2022/11/29 08:27:54;;;;;;;23.67;12.65;;;7.80;61.50;;;6.21;64.97;101504.63;12158885;19;20562;-86
2022/11/29 08:31:56;;;;;;;22.25;12.48;;;7.80;61.30;;;6.50;64.80;101547.16;12155742;19;21078;-86
2022/11/29 08:36:07;;;;;;;25.63;14.77;;;8.00;61.50;;;6.50;64.78;101558.38;12126826;19;20958;-86
2022/11/29 08:40:10;;;;;;;23.20;13.82;;;7.90;61.20;;;6.19;64.80;101501.22;12114857;19;20819;-86
2022/11/29 08:44:12;;;;;;;21.50;12.45;;;7.90;61.20;;;6.51;64.96;101554.03;12115420;19;20010;-86
2022/11/29 08:48:14;;;;;;;22.98;13.27;;;7.90;61.10;;;6.51;64.89;101546.25;12109098;19;20582;-86
2022/11/29 08:56:37;;;;;;;23.10;13.98;;;8.00;61.20;;;6.37;64.83;101516.34;12098605;19;20879;-86
2022/11/29 09:00:41;;;;;;;21.85;13.48;;;8.00;61.10;;;6.62;64.89;101549.47;12100846;19;20322;-87
2022/11/29 09:04:43;;;;;;;25.60;14.77;;;8.00;61.10;;;6.40;64.84;101516.28;12099705;19;20399;-86
2022/11/29 09:08:45;;;;;;;23.10;13.57;;;8.20;61.30;;;6.69;64.83;101557.91;12100603;19;20398;-86
2022/11/29 09:12:48;;;;;;;22.15;13.70;;;8.10;61.30;;;6.75;64.91;101562.94;12096950;19;20904;-86
2022/11/29 09:16:50;;;;;;;22.20;13.80;;;8.10;61.30;;;6.65;65.11;101550.22;12091784;19;20290;-86
2022/11/29 09:20:51;;;;;;;28.92;14.60;;;8.10;61.10;;;6.80;64.83;101567.13;12100395;19;20149;-86
2022/11/29 09:24:53;;;;;;;22.65;14.57;;;8.20;61.20;;;6.74;65.09;101549.13;12095477;19;20423;-86
2022/11/29 09:29:00;;;;;;;23.20;14.00;;;8.20;61.20;;;6.77;64.84;101550.78;12097911;19;20103;-86
2022/11/29 09:33:03;;;;;;;27.40;15.25;;;8.30;61.20;;;6.92;64.86;101562.53;12094940;19;20382;-85
2022/11/29 09:37:05;;;;;;;26.75;14.73;;;8.30;61.10;;;6.97;64.86;101573.66;12095334;19;20159;-86
2022/11/29 09:41:35;;;;;;;24.38;14.23;;;8.30;61.00;;;6.89;64.72;101560.88;12092171;19;20287;-85
2022/11/29 09:45:44;;;;;;;20.73;12.73;;;8.30;61.00;;;6.99;64.95;101582.22;12092805;19;20026;-86
2022/11/29 09:50:44;;;;;;;20.02;11.90;;;8.40;61.10;;;7.02;64.70;101579.53;12088966;19;20419;-86
2022/11/29 09:55:12;;;;;;;21.55;13.23;;;8.40;61.10;;;7.03;64.96;101579.53;12094532;19;20374;-86
2022/11/29 09:59:34;;;;;;;24.65;13.88;;;8.40;61.00;;;7.09;64.84;101576.75;12090039;19;20406;-86
2022/11/29 10:03:44;;;;;;;24.90;15.02;;;8.50;61.10;;;6.46;64.99;101471.16;12090129;19;20377;-86
2022/11/29 10:08:07;;;;;;;25.02;13.95;;;8.50;60.90;;;7.04;65.03;101565.63;12090759;19;20034;-86
2022/11/29 10:12:30;;;;;;;22.20;14.00;;;8.50;60.80;;;7.15;64.92;101582.66;12091478;19;20485;-86
2022/11/29 10:16:43;;;;;;;23.85;13.65;;;8.50;60.90;;;7.19;64.78;101581.72;12094926;19;20026;-86
2022/11/29 10:20:49;;;;;;;23.52;13.32;;;8.60;61.00;;;7.07;64.99;101552.59;12096172;19;20453;-86
2022/11/29 10:24:59;;;;;;;24.55;14.85;;;8.60;61.00;;;7.24;64.74;101579.84;12091489;19;20023;-86
2022/11/29 10:29:01;;;;;;;28.02;15.23;;;8.60;60.90;;;7.31;64.78;101583.94;12098619;19;20022;-86
2022/11/29 10:33:34;;;;;;;24.52;14.85;;;8.70;60.70;;;7.23;64.88;101571.19;12087093;19;20480;-84
2022/11/29 10:37:37;;;;;;;21.48;12.70;;;8.60;60.60;;;7.25;65.05;101569.41;12099699;19;20022;-85
2022/11/29 10:41:39;;;;;;;24.08;15.02;;;8.70;60.80;;;7.39;64.98;101587.19;12091019;19;20038;-86
2022/11/29 10:45:54;;;;;;;25.85;14.15;;;8.70;60.50;;;7.32;64.83;101580.47;12097175;19;20435;-86
2022/11/29 10:49:57;;;;;;;21.65;14.05;;;8.70;60.50;;;7.42;64.75;101587.09;12089773;19;20477;-86
2022/11/29 10:54:30;;;;;;;23.77;14.15;;;8.80;61.30;;;7.44;64.87;101592.25;12146250;19;20015;-86
2022/11/29 10:58:33;;;;;;;22.42;13.95;;;8.80;60.60;;;7.37;64.84;101578.63;12149474;19;20493;-86
2022/11/29 11:02:35;;;;;;;23.30;13.13;;;8.80;60.60;;;7.18;64.84;101538.44;12137085;19;20027;-86
2022/11/29 11:06:55;;;;;;;19.92;12.88;;;8.80;60.60;;;7.45;64.58;101581.84;12141692;19;20014;-85
2022/11/29 11:10:58;;;;;;;19.75;13.02;;;8.90;60.60;;;7.42;64.86;101575.84;12143175;19;20360;-86
2022/11/29 11:15:32;;;;;;;21.27;13.30;;;9.10;60.80;;;7.48;64.64;101592.16;12143665;19;20797;-86
2022/11/29 11:19:34;;;;;;;24.10;13.65;;;8.90;60.40;;;7.49;64.94;101575.66;12145133;19;20015;-86
2022/11/29 11:24:01;;;;;;;27.13;16.25;;;8.90;60.40;;;7.57;64.74;101605.78;12152515;19;20022;-86
2022/11/29 11:28:33;;;;;;;23.42;14.13;;;9.00;60.10;;;7.55;64.85;101598.00;12155287;19;20801;-86
2022/11/29 11:32:36;;;;;;;26.90;14.10;;;9.10;60.30;;;7.64;64.86;101602.97;12155186;19;20014;-87
2022/11/29 11:36:37;;;;;;;25.83;14.32;;;9.00;60.40;;;7.60;64.64;101595.28;12180954;19;20860;-87
2022/11/29 11:40:39;;;;;;;24.60;14.20;;;9.20;60.60;;;7.54;64.81;101578.97;12163488;19;20370;-85
2022/11/29 11:44:51;;;;;;;23.95;14.07;;;9.10;60.50;;;7.65;64.88;101591.66;12162270;19;20276;-85
2022/11/29 11:48:53;;;;;;;24.85;14.23;;;9.00;60.50;;;7.76;64.70;101604.34;12163642;19;20095;-86
2022/11/29 11:53:06;;;;;;;22.10;14.48;;;9.00;60.50;;;7.72;64.88;101587.13;12161070;19;20022;-86
2022/11/29 11:57:19;;;;;;;23.40;13.27;;;9.20;60.60;;;7.79;64.66;101606.84;12162117;19;20019;-86
2022/11/29 12:01:36;;;;;;;23.50;13.65;;;9.20;60.60;;;7.83;64.74;101605.00;12160649;19;20372;-86
2022/11/29 12:05:38;;;;;;;30.60;16.83;;;9.10;60.60;;;7.84;64.81;101602.38;12167421;19;20371;-85
2022/11/29 12:09:51;;;;;;;25.65;15.27;;;9.20;60.60;;;7.67;64.64;101576.88;12151181;19;20039;-84
2022/11/29 12:13:58;;;;;;;25.67;14.82;;;9.20;60.40;;;7.84;64.63;101599.75;12156268;19;20030;-85
2022/11/29 12:18:11;;;;;;;26.65;15.57;;;9.20;60.30;;;7.92;64.64;101617.75;12157545;19;20842;-85
2022/11/29 12:22:21;;;;;;;22.98;15.32;;;9.20;60.00;;;7.84;64.63;101604.97;12157674;19;20023;-84
2022/11/29 12:26:31;;;;;;;23.55;14.45;;;9.30;60.20;;;7.89;64.69;101613.47;12160410;19;20049;-84
2022/11/29 12:30:34;;;;;;;21.95;14.13;;;9.40;60.20;;;7.90;64.67;101609.13;12167089;19;20018;-85
2022/11/29 12:34:59;;;;;;;28.67;16.10;;;9.30;60.20;;;7.95;64.60;101617.66;12164326;19;20050;-85
2022/11/29 12:39:20;;;;;;;30.60;15.43;;;9.30;59.90;;;7.96;64.72;101614.97;12158250;19;20363;-84
2022/11/29 12:43:36;;;;;;;24.13;14.48;;;9.30;60.00;;;7.96;64.54;101625.38;12163089;19;20022;-84
2022/11/29 12:48:13;;;;;;;24.15;13.98;;;9.30;60.20;;;7.97;64.70;101634.91;12168637;19;21319;-84
2022/11/29 12:52:30;;;;;;;24.60;14.88;;;9.30;60.30;;;8.01;64.71;101642.63;12164000;19;20046;-84
2022/11/29 12:56:45;;;;;;;27.23;16.42;;;9.30;60.20;;;7.97;64.54;101641.88;12164803;19;20019;-83
2022/11/29 13:01:26;;;;;;;29.52;16.90;;;9.30;60.00;;;7.95;64.47;101644.50;12158623;19;20068;-84
2022/11/29 13:06:07;;;;;;;28.10;15.57;;;9.40;59.90;;;7.91;64.40;101639.44;12164876;19;20662;-84
2022/11/29 13:10:49;;;;;;;28.10;15.85;;;9.30;59.90;;;7.97;64.41;101658.31;12159308;19;20018;-83
2022/11/29 13:14:56;;;;;;;27.98;16.35;;;9.40;59.90;;;8.00;64.61;101657.38;12153409;19;20382;-83
2022/11/29 13:19:22;;;;;;;28.58;16.63;;;9.30;59.90;;;7.97;64.50;101652.28;12153387;19;20032;-83
2022/11/29 13:24:10;;;;;;;27.05;15.55;;;9.30;59.90;;;7.92;64.40;101654.16;12157497;19;20398;-83
2022/11/29 13:28:27;;;;;;;32.30;18.42;;;9.30;59.90;;;7.92;64.41;101662.81;12157103;19;20949;-83
2022/11/29 13:32:52;;;;;;;27.35;16.63;;;9.30;59.70;;;7.95;64.43;101664.47;12155222;19;20117;-85
2022/11/29 13:37:35;;;;;;;24.73;16.20;;;9.30;59.80;;;7.95;64.26;101664.47;12157193;19;20375;-84
2022/11/29 13:42:04;;;;;;;25.35;15.65;;;9.30;59.90;;;7.93;64.20;101667.09;12158656;19;20018;-84
2022/11/29 13:46:40;;;;;;;29.77;17.42;;;9.20;59.80;;;7.85;64.45;101656.06;12158329;19;20106;-83
2022/11/29 13:50:43;;;;;;;23.83;14.38;;;9.30;59.90;;;7.88;64.32;101657.72;12152002;19;20022;-84
2022/11/29 13:54:44;;;;;;;27.60;15.95;;;9.30;59.90;;;7.88;64.60;101653.38;12153716;19;20428;-84
2022/11/29 13:58:53;;;;;;;25.95;15.40;;;9.30;60.00;;;7.89;64.40;101665.50;12151154;19;20022;-83
2022/11/29 14:03:15;;;;;;;25.38;15.38;;;9.20;60.00;;;8.00;64.44;101677.34;12153290;19;20018;-84
2022/11/29 14:07:18;;;;;;;26.52;14.50;;;9.30;60.10;;;7.96;64.46;101669.59;12156513;19;20022;-84
2022/11/29 14:11:36;;;;;;;22.40;13.98;;;9.30;60.20;;;8.01;64.32;101681.63;12159400;19;20483;-85
2022/11/29 14:15:37;;;;;;;25.17;15.60;;;9.30;60.10;;;7.98;64.35;101662.63;12156403;19;20480;-84
2022/11/29 14:19:39;;;;;;;25.05;13.70;;;9.30;59.90;;;8.01;64.30;101674.69;12154166;19;20053;-84
2022/11/29 14:23:43;;;;;;;25.48;14.18;;;9.30;60.00;;;8.02;64.36;101680.72;12155844;19;20030;-84
2022/11/29 14:27:53;;;;;;;25.67;15.38;;;9.30;59.90;;;7.97;64.36;101673.94;12156374;19;20037;-84
2022/11/29 14:31:55;;;;;;;25.05;15.20;;;9.30;59.90;;;7.89;64.51;101660.28;12150853;19;20035;-85
2022/11/29 14:36:09;;;;;;;26.88;15.13;;;9.30;60.00;;;7.98;64.40;101683.41;12154272;19;20015;-85
2022/11/29 14:40:40;;;;;;;25.52;14.88;;;9.30;59.80;;;7.96;64.42;101693.00;12143392;19;20280;-84
2022/11/29 14:44:47;;;;;;;25.65;15.68;;;9.30;59.80;;;7.94;64.41;101705.22;12150203;19;20030;-84
2022/11/29 14:48:55;;;;;;;26.13;15.00;;;9.30;59.90;;;7.97;64.29;101693.88;12152667;19;20018;-85
2022/11/29 14:52:57;;;;;;;26.48;16.58;;;9.30;59.90;;;7.89;64.27;101695.84;12148511;19;21007;-84
2022/11/29 14:57:47;;;;;;;28.95;15.85;;;9.20;59.80;;;7.94;64.31;101713.03;12146999;19;20014;-84
2022/11/29 15:01:49;;;;;;;21.33;13.98;;;9.30;59.90;;;7.94;64.19;101704.38;12148337;19;20480;-84
2022/11/29 15:06:29;;;;;;;25.17;14.98;;;9.30;60.80;;;7.92;64.18;101708.78;12149261;19;20086;-84
2022/11/29 15:10:54;;;;;;;23.55;14.23;;;9.20;60.00;;;7.96;64.23;101707.78;12151070;19;20026;-84
2022/11/29 15:15:22;;;;;;;23.10;13.73;;;9.30;60.00;;;7.95;64.28;101714.72;12153304;19;20423;-84
2022/11/29 15:19:51;;;;;;;21.25;13.48;;;9.30;60.00;;;7.91;64.31;101713.13;12146956;19;20042;-85
2022/11/29 15:24:01;;;;;;;31.30;16.95;;;9.30;60.00;;;7.93;64.26;101713.91;12143167;19;20015;-84
2022/11/29 15:28:05;;;;;;;21.35;14.10;;;9.30;59.90;;;7.98;64.37;101722.44;12146000;19;20064;-84
2022/11/29 15:32:12;;;;;;;28.40;16.55;;;9.30;60.00;;;7.93;64.18;101716.50;12149770;19;20563;-84
2022/11/29 15:36:20;;;;;;;26.13;15.48;;;9.30;59.90;;;7.96;64.15;101734.63;12144223;19;20503;-85
2022/11/29 15:40:30;;;;;;;24.73;14.63;;;9.20;60.00;;;7.95;64.30;101727.72;12148115;19;20548;-85
2022/11/29 15:44:31;;;;;;;30.63;17.42;;;9.20;60.00;;;7.91;64.15;101733.03;12142345;19;20896;-84
2022/11/29 15:48:34;;;;;;;24.40;15.20;;;9.20;59.90;;;7.98;64.39;101739.78;12139738;19;20015;-85
2022/11/29 15:52:37;;;;;;;27.65;15.15;;;9.40;60.20;;;7.66;64.38;101688.69;12151481;19;20034;-84
2022/11/29 15:57:23;;;;;;;25.55;15.35;;;9.50;60.30;;;7.93;64.12;101741.66;12151532;19;21188;-85
2022/11/29 16:01:25;;;;;;;;;;;9.30;60.20;;;7.93;64.18;101749.47;12140944;19;20025;-84
2022/11/29 16:05:35;;;;;;;20.35;12.68;;;9.30;60.20;;;7.80;64.33;101737.69;12148641;19;20191;-84
2022/11/29 16:09:45;;;;;;;30.80;14.85;;;9.30;60.00;;;7.88;64.33;101759.16;12143194;19;20129;-84
2022/11/29 16:14:09;;;;;;;24.52;15.35;;;9.20;60.00;;;7.93;64.13;101763.31;12152156;19;20025;-84
2022/11/29 16:18:19;;;;;;;21.77;14.07;;;9.20;59.90;;;7.91;64.35;101764.25;12153828;19;20821;-85
2022/11/29 16:22:22;;;;;;;26.02;14.32;;;9.20;60.00;;;7.88;64.23;101756.53;12154987;19;20125;-84
2022/11/29 16:26:38;;;;;;;24.83;14.38;;;9.20;60.10;;;7.83;64.26;101751.50;12164338;19;20006;-85
2022/11/29 16:30:41;;;;;;;26.05;15.43;;;9.20;60.00;;;7.92;64.16;101759.03;12161950;19;20567;-84
2022/11/29 16:34:43;;;;;;;22.80;14.45;;;9.30;60.00;;;7.91;64.26;101770.34;12158910;19;20010;-85
2022/11/29 16:39:06;;;;;;;29.23;16.48;;;9.30;60.10;;;7.87;64.08;101770.44;12159062;19;20475;-85
2022/11/29 16:43:40;;;;;;;30.33;17.08;;;9.30;59.90;;;7.86;64.33;101773.97;12160526;19;20018;-85
2022/11/29 16:47:51;;;;;;;25.10;14.55;;;9.20;59.90;;;7.90;64.30;101779.00;12161623;19;20026;-85
2022/11/29 16:51:53;;;;;;;24.48;14.63;;;9.30;60.10;;;7.91;64.07;101777.25;12157817;19;20014;-85
2022/11/29 16:55:55;;;;;;;25.50;15.13;;;9.30;60.10;;;7.87;64.19;101766.09;12158588;19;20030;-85
2022/11/29 16:59:57;;;;;;;29.80;16.95;;;9.30;60.00;;;7.96;64.25;101789.25;12156557;19;20382;-85
2022/11/29 17:03:59;;;;;;;26.75;15.55;;;9.30;59.80;;;7.84;64.31;101775.75;12162189;19;21006;-84
2022/11/29 17:08:01;;;;;;;28.13;15.88;;;9.30;59.90;;;7.92;64.22;101795.44;12158561;19;20115;-85
2022/11/29 17:12:03;;;;;;;31.40;17.00;;;9.30;59.90;;;7.93;64.16;101799.72;12154580;19;20740;-85
2022/11/29 17:16:10;;;;;;;24.85;14.90;;;9.30;59.80;;;7.86;64.30;101787.81;12163243;19;20018;-85
2022/11/29 17:20:12;;;;;;;23.70;12.88;;;9.20;59.80;;;7.63;64.11;101751.16;12161104;19;20042;-85
2022/11/29 17:24:18;;;;;;;23.08;14.45;;;9.20;59.90;;;7.82;64.41;101790.53;12159141;19;20015;-84
2022/11/29 17:28:19;;;;;;;;;;;9.30;59.90;;;7.91;64.09;101809.34;12160964;19;20858;-85
2022/11/29 17:32:21;;;;;;;23.45;12.27;;;9.20;60.00;;;7.90;64.29;101810.22;12157640;19;20199;-85
2022/11/29 17:36:22;;;;;;;22.67;13.35;;;9.20;59.90;;;7.92;64.24;101816.25;12163506;19;20014;-85
2022/11/29 17:40:24;;;;;;;27.15;15.63;;;9.50;60.70;;;7.91;64.26;101819.75;12159462;19;20018;-86